createdAt,value
2023-05-01T00:03:44.705Z,99320.33
2023-05-01T00:08:46.597Z,99316.08
2023-05-01T00:13:48.254Z,99315.61
2023-05-01T00:18:50.004Z,99313.04
2023-05-01T00:23:52.137Z,99313.73
2023-05-01T00:28:54.227Z,99313.28
2023-05-01T00:33:56.502Z,99308.45
2023-05-01T00:38:58.337Z,99309.75
2023-05-01T00:44:00.259Z,99308.14
2023-05-01T00:49:02.337Z,99306.84
2023-05-01T00:54:05.822Z,99303.60
2023-05-01T00:59:07.607Z,99298.09
2023-05-01T01:04:09.569Z,99295.55
2023-05-01T01:09:37.557Z,99296.00
2023-05-01T01:14:47.560Z,99296.34
2023-05-01T01:20:01.665Z,99288.30
2023-05-01T01:25:26.111Z,99279.67
2023-05-01T01:30:52.545Z,99277.83
2023-05-01T01:35:58.258Z,99276.02
2023-05-01T01:41:08.584Z,99276.96
2023-05-01T01:46:11.559Z,99278.83
2023-05-01T01:51:16.712Z,99275.64
2023-05-01T01:56:21.515Z,99271.63
2023-05-01T02:01:25.416Z,99270.70
2023-05-01T02:06:29.335Z,99267.02
2023-05-01T02:11:32.132Z,99265.85
2023-05-01T02:16:36.025Z,99263.41
2023-05-01T02:21:39.575Z,99259.96
2023-05-01T02:26:44.371Z,99256.31
2023-05-01T02:31:46.168Z,99251.91
2023-05-01T02:36:48.024Z,99252.87
2023-05-01T02:41:53.486Z,99251.41
2023-05-01T02:46:56.493Z,99251.48
2023-05-01T02:51:58.517Z,99246.02
2023-05-01T02:57:00.814Z,99239.23
2023-05-01T03:02:03.308Z,99240.58
2023-05-01T03:07:05.293Z,99244.06
2023-05-01T03:12:07.504Z,99246.93
2023-05-01T03:17:09.223Z,99237.95
2023-05-01T03:22:11.854Z,99231.05
2023-05-01T03:27:14.290Z,99233.16
2023-05-01T03:32:17.900Z,99225.91
2023-05-01T03:37:20.799Z,99214.08
2023-05-01T03:42:23.367Z,99210.08
2023-05-01T03:47:26.072Z,99210.76
2023-05-01T03:52:28.105Z,99213.52
2023-05-01T03:57:30.459Z,99211.78
2023-05-01T04:07:13.967Z,99208.10
2023-05-01T04:12:16.173Z,99207.45
2023-05-01T04:17:18.228Z,99200.27
2023-05-01T04:22:20.041Z,99205.04
2023-05-01T04:27:21.886Z,99203.74
2023-05-01T04:32:24.035Z,99199.69
2023-05-01T04:37:26.084Z,99204.66
2023-05-01T04:42:32.016Z,99208.15
2023-05-01T04:47:34.003Z,99209.31
2023-05-01T04:52:36.060Z,99205.73
2023-05-01T04:57:40.561Z,99203.83
2023-05-01T05:02:42.774Z,99200.33
2023-05-01T05:07:45.774Z,99195.07
2023-05-01T05:13:10.177Z,99190.80
2023-05-01T05:18:12.827Z,99188.22
2023-05-01T05:23:15.208Z,99183.73
2023-05-01T05:28:17.566Z,99188.77
2023-05-01T05:33:19.991Z,99185.30
2023-05-01T05:38:21.810Z,99182.21
2023-05-01T05:43:27.983Z,99188.71
2023-05-01T05:48:31.429Z,99186.41
2023-05-01T05:53:33.497Z,99188.17
2023-05-01T05:58:35.748Z,99189.71
2023-05-01T06:03:37.756Z,99190.99
2023-05-01T06:08:39.651Z,99185.13
2023-05-01T06:13:43.187Z,99179.98
2023-05-01T06:18:45.913Z,99175.95
2023-05-01T06:23:51.318Z,99180.09
2023-05-01T06:28:58.230Z,99179.29
2023-05-01T06:34:00.808Z,99175.11
2023-05-01T06:39:11.795Z,99173.00
2023-05-01T06:44:13.840Z,99174.02
2023-05-01T06:49:15.905Z,99176.78
2023-05-01T06:54:17.674Z,99170.09
2023-05-01T06:59:19.474Z,99168.07
2023-05-01T07:04:21.335Z,99166.30
2023-05-01T07:09:23.052Z,99165.38
2023-05-01T07:14:25.173Z,99161.98
2023-05-01T07:19:26.940Z,99159.15
2023-05-01T07:24:28.690Z,99154.36
2023-05-01T07:29:30.420Z,99149.67
2023-05-01T07:34:32.145Z,99142.65
2023-05-01T07:39:33.861Z,99144.95
2023-05-01T07:44:35.741Z,99140.79
2023-05-01T07:49:38.687Z,99136.89
2023-05-01T07:54:40.472Z,99134.64
2023-05-01T07:59:42.181Z,99133.79
2023-05-01T08:04:44.010Z,99134.64
2023-05-01T08:09:46.290Z,99135.80
2023-05-01T08:14:48.110Z,99140.06
2023-05-01T08:19:50.646Z,99143.55
2023-05-01T08:25:01.773Z,99136.10
2023-05-01T08:30:06.207Z,99138.41
2023-05-01T08:35:08.538Z,99134.77
2023-05-01T08:40:10.911Z,99129.51
2023-05-01T08:45:13.056Z,99122.38
2023-05-01T08:50:17.570Z,99112.11
2023-05-01T08:55:21.071Z,99113.27
2023-05-01T09:00:24.705Z,99109.68
2023-05-01T09:05:27.127Z,99103.61
2023-05-01T09:10:32.933Z,99101.71
2023-05-01T09:15:34.891Z,99098.02
2023-05-01T09:20:37.888Z,99085.83
2023-05-01T09:25:39.669Z,99084.17
2023-05-01T09:30:42.135Z,99084.86
2023-05-01T09:35:55.314Z,99077.62
2023-05-01T09:41:04.424Z,99079.72
2023-05-01T09:46:09.808Z,99068.29
2023-05-01T09:51:23.018Z,99069.34
2023-05-01T09:56:29.454Z,99068.16
2023-05-01T10:01:39.623Z,99064.27
2023-05-01T10:06:42.318Z,99056.55
2023-05-01T10:11:49.685Z,99058.54
2023-05-01T10:16:54.806Z,99049.58
2023-05-01T10:21:56.686Z,99041.50
2023-05-01T10:26:59.845Z,99037.14
2023-05-01T10:32:07.406Z,99029.20
2023-05-01T10:37:18.287Z,99026.09
2023-05-01T10:42:20.013Z,99012.99
2023-05-01T10:47:28.733Z,99018.04
2023-05-01T10:52:31.270Z,99010.95
2023-05-01T10:57:46.346Z,99005.46
2023-05-01T11:02:48.049Z,98998.30
2023-05-01T11:08:28.597Z,98983.38
2023-05-01T11:14:10.965Z,98973.95
2023-05-01T11:19:38.533Z,98968.98
2023-05-01T11:24:40.953Z,98958.23
2023-05-01T11:29:44.921Z,98949.23
2023-05-01T11:34:48.474Z,98940.65
2023-05-01T11:39:51.286Z,98927.90
2023-05-01T11:45:11.168Z,98919.59
2023-05-01T11:50:13.336Z,98914.62
2023-05-01T11:55:16.807Z,98908.73
2023-05-01T12:00:31.825Z,98904.40
2023-05-01T12:05:37.973Z,98900.35
2023-05-01T12:10:42.622Z,98891.91
2023-05-01T12:15:50.735Z,98886.70
2023-05-01T12:20:54.593Z,98877.55
2023-05-01T12:25:56.859Z,98873.84
2023-05-01T12:31:05.181Z,98866.58
2023-05-01T12:36:13.678Z,98866.85
2023-05-01T12:41:15.456Z,98857.45
2023-05-01T12:46:17.834Z,98844.46
2023-05-01T12:51:20.477Z,98835.45
2023-05-01T12:56:23.963Z,98830.96
2023-05-01T13:01:29.961Z,98820.29
2023-05-01T13:06:36.036Z,98811.50
2023-05-01T13:11:38.121Z,98803.33
2023-05-01T13:16:46.643Z,98803.56
2023-05-01T13:21:49.650Z,98798.62
2023-05-01T13:27:03.606Z,98794.78
2023-05-01T13:32:10.875Z,98786.84
2023-05-01T13:37:13.906Z,98785.98
2023-05-01T13:42:26.102Z,98778.99
2023-05-01T13:47:28.212Z,98767.68
2023-05-01T13:52:30.057Z,98769.45
2023-05-01T13:57:31.965Z,98762.17
2023-05-01T14:02:33.837Z,98757.09
2023-05-01T14:07:45.261Z,98754.37
2023-05-01T14:12:47.069Z,98746.39
2023-05-01T14:17:50.412Z,98742.54
2023-05-01T14:22:53.381Z,98734.19
2023-05-01T14:27:56.243Z,98721.23
2023-05-01T14:32:58.014Z,98718.23
2023-05-01T14:38:10.144Z,98710.05
2023-05-01T14:43:18.592Z,98700.62
2023-05-01T14:48:24.625Z,98702.01
2023-05-01T14:53:27.753Z,98700.90
2023-05-01T14:58:29.445Z,98692.23
2023-05-01T15:03:32.127Z,98686.80
2023-05-01T15:08:34.024Z,98682.90
2023-05-01T15:13:36.517Z,98678.56
2023-05-01T15:18:38.986Z,98673.66
2023-05-01T15:23:45.221Z,98666.05
2023-05-01T15:28:47.095Z,98661.52
2023-05-01T15:33:48.804Z,98661.18
2023-05-01T15:38:50.495Z,98660.73
2023-05-01T15:43:53.360Z,98658.52
2023-05-01T15:48:55.078Z,98655.70
2023-05-01T15:53:56.989Z,98661.11
2023-05-01T15:59:02.189Z,98657.95
2023-05-01T16:04:04.597Z,98658.16
2023-05-01T16:09:06.421Z,98656.70
2023-05-01T16:14:09.361Z,98654.73
2023-05-01T16:19:14.929Z,98655.04
2023-05-01T16:24:16.707Z,98654.98
2023-05-01T16:29:18.419Z,98651.95
2023-05-01T16:34:25.449Z,98647.84
2023-05-01T16:39:27.300Z,98640.98
2023-05-01T16:44:29.247Z,98639.47
2023-05-01T16:49:31.200Z,98637.25
2023-05-01T16:54:35.883Z,98640.59
2023-05-01T16:59:38.040Z,98641.70
2023-05-01T17:04:39.774Z,98642.30
2023-05-01T17:09:41.544Z,98640.20
2023-05-01T17:14:43.277Z,98638.34
2023-05-01T17:19:45.361Z,98633.52
2023-05-01T17:24:47.789Z,98638.48
2023-05-01T17:29:49.614Z,98641.36
2023-05-01T17:34:51.694Z,98642.42
2023-05-01T17:39:53.330Z,98646.44
2023-05-01T17:44:55.104Z,98647.81
2023-05-01T17:49:56.926Z,98644.35
2023-05-01T17:54:59.101Z,98644.14
2023-05-01T18:00:01.315Z,98644.32
2023-05-01T18:05:05.038Z,98651.64
2023-05-01T18:10:07.505Z,98660.05
2023-05-01T18:15:09.830Z,98655.52
2023-05-01T18:20:12.032Z,98655.84
2023-05-01T18:25:15.357Z,98659.04
2023-05-01T18:30:17.266Z,98662.27
2023-05-01T18:35:19.124Z,98666.39
2023-05-01T18:40:21.085Z,98668.36
2023-05-01T18:45:23.200Z,98667.54
2023-05-01T18:50:24.911Z,98670.48
2023-05-01T18:55:26.976Z,98677.16
2023-05-01T19:00:29.750Z,98677.80
2023-05-01T19:05:31.681Z,98675.67
2023-05-01T19:10:35.424Z,98680.73
2023-05-01T19:15:38.346Z,98673.33
2023-05-01T19:20:40.057Z,98676.80
2023-05-01T19:25:41.775Z,98677.84
2023-05-01T19:30:43.668Z,98683.05
2023-05-01T19:35:45.631Z,98684.09
2023-05-01T19:40:47.392Z,98683.57
2023-05-01T19:45:49.146Z,98683.38
2023-05-01T19:50:52.123Z,98690.91
2023-05-01T19:55:54.000Z,98694.65
2023-05-01T20:00:58.793Z,98694.77
2023-05-01T20:06:00.848Z,98696.25
2023-05-01T20:11:02.779Z,98698.20
2023-05-01T20:16:04.996Z,98696.38
2023-05-01T20:21:07.917Z,98694.52
2023-05-01T20:26:09.781Z,98693.88
2023-05-01T20:31:12.416Z,98689.45
2023-05-01T20:36:14.765Z,98692.98
2023-05-01T20:41:16.490Z,98699.23
2023-05-01T20:46:18.482Z,98700.73
2023-05-01T20:51:20.308Z,98701.41
2023-05-01T20:56:22.032Z,98710.91
2023-05-01T21:01:23.793Z,98717.10
2023-05-01T21:06:27.304Z,98719.13
2023-05-01T21:11:30.129Z,98717.52
2023-05-01T21:16:33.572Z,98716.98
2023-05-01T21:21:36.886Z,98724.27
2023-05-01T21:26:38.961Z,98722.20
2023-05-01T21:31:42.808Z,98721.92
2023-05-01T21:36:45.097Z,98727.63
2023-05-01T21:41:49.066Z,98730.70
2023-05-01T21:46:57.108Z,98731.56
2023-05-01T21:52:01.320Z,98733.42
2023-05-01T21:57:07.582Z,98732.41
2023-05-01T22:02:11.667Z,98727.85
2023-05-01T22:07:13.400Z,98726.60
2023-05-01T22:12:15.146Z,98729.81
2023-05-01T22:17:23.960Z,98730.80
2023-05-01T22:22:25.896Z,98730.41
2023-05-01T22:27:27.644Z,98730.13
2023-05-01T22:32:29.467Z,98724.28
2023-05-01T22:37:31.420Z,98724.24
2023-05-01T22:42:33.099Z,98729.52
2023-05-01T22:47:34.935Z,98730.42
2023-05-01T22:52:36.726Z,98730.69
2023-05-01T22:57:38.404Z,98728.75
2023-05-01T23:02:40.968Z,98730.21
2023-05-01T23:07:44.247Z,98727.52
2023-05-01T23:12:50.090Z,98728.43
2023-05-01T23:17:52.568Z,98731.04
2023-05-01T23:22:54.344Z,98732.08
2023-05-01T23:27:57.106Z,98733.95
2023-05-01T23:33:00.801Z,98731.59
2023-05-01T23:38:03.111Z,98723.77
2023-05-01T23:43:06.119Z,98723.52
2023-05-01T23:48:09.331Z,98720.02
2023-05-01T23:53:11.494Z,98712.14
2023-05-01T23:58:13.337Z,98706.84
